Time;durP1;ratioP1;P1;durP2;ratioP2;P2;SDS_P1;SDS_P2;PMS_P1;PMS_P2;Temp;Humidity;BMP_temperature;BMP_pressure;BME280_temperature;BME280_humidity;BME280_pressure;Samples;Min_cycle;Max_cycle;Signal;HPM_P1;HPM_P2
2021/04/18 00:00:58;;;;;;;11.63;4.07;;;;;;;;;;5096411;28;20032;-78
2021/04/18 00:03:24;;;;;;;9.43;3.83;;;;;;;;;;5092044;28;20044;-78
2021/04/18 00:05:49;;;;;;;11.73;4.30;;;;;;;;;;5087899;28;20047;-78
2021/04/18 00:08:15;;;;;;;11.43;4.67;;;;;;;;;;5093276;28;20031;-78
2021/04/18 00:10:40;;;;;;;11.30;4.43;;;;;;;;;;5092976;28;20468;-78
2021/04/18 00:13:06;;;;;;;17.43;4.70;;;;;;;;;;5081938;28;20511;-78
2021/04/18 00:15:32;;;;;;;10.57;4.40;;;;;;;;;;5087155;28;20472;-78
2021/04/18 00:17:57;;;;;;;13.70;4.50;;;;;;;;;;5098682;28;20278;-78
2021/04/18 00:20:23;;;;;;;14.60;4.17;;;;;;;;;;5094559;28;20044;-78
2021/04/18 00:22:48;;;;;;;9.73;4.20;;;;;;;;;;5098429;28;20036;-78
2021/04/18 00:25:15;;;;;;;17.43;4.17;;;;;;;;;;5099375;28;20039;-78
2021/04/18 00:27:41;;;;;;;14.00;4.30;;;;;;;;;;5109525;28;20035;-77
2021/04/18 00:30:07;;;;;;;11.33;4.57;;;;;;;;;;5100172;28;20730;-77
2021/04/18 00:32:33;;;;;;;9.77;4.20;;;;;;;;;;5093747;28;20445;-77
2021/04/18 00:34:58;;;;;;;11.37;4.70;;;;;;;;;;5097268;28;20386;-77
2021/04/18 00:37:23;;;;;;;10.77;4.50;;;;;;;;;;5099254;28;20028;-77
2021/04/18 00:39:48;;;;;;;13.73;4.83;;;;;;;;;;5063282;28;20412;-77
2021/04/18 00:42:13;;;;;;;12.87;5.03;;;;;;;;;;5089881;28;20079;-77
2021/04/18 00:44:39;;;;;;;12.13;5.00;;;;;;;;;;5089669;28;20024;-77
2021/04/18 00:47:04;;;;;;;10.83;5.07;;;;;;;;;;5092847;28;20020;-77
2021/04/18 00:49:30;;;;;;;12.70;4.63;;;;;;;;;;5086186;28;20020;-77
2021/04/18 00:51:55;;;;;;;15.53;4.73;;;;;;;;;;5090966;28;20093;-77
2021/04/18 00:54:20;;;;;;;14.13;5.40;;;;;;;;;;5089719;28;20079;-77
2021/04/18 00:56:45;;;;;;;14.87;5.07;;;;;;;;;;5083884;28;20035;-77
2021/04/18 00:59:11;;;;;;;10.23;4.73;;;;;;;;;;5090638;28;20024;-77
2021/04/18 01:01:36;;;;;;;16.30;5.50;;;;;;;;;;5088461;28;20461;-78
2021/04/18 01:04:02;;;;;;;13.73;4.83;;;;;;;;;;5068588;28;20036;-78
2021/04/18 01:06:27;;;;;;;13.50;5.30;;;;;;;;;;5065641;28;20029;-78
2021/04/18 01:08:52;;;;;;;10.90;5.03;;;;;;;;;;5069086;28;20104;-78
2021/04/18 01:11:18;;;;;;;12.77;5.97;;;;;;;;;;5048170;28;20033;-77
2021/04/18 01:13:43;;;;;;;11.77;5.20;;;;;;;;;;5070072;28;20528;-77
2021/04/18 01:16:08;;;;;;;12.73;5.53;;;;;;;;;;5069743;28;20036;-76
2021/04/18 01:18:33;;;;;;;13.30;5.47;;;;;;;;;;5068377;28;20032;-76
2021/04/18 01:21:03;;;;;;;15.00;5.77;;;;;;;;;;5065893;28;20034;-78
2021/04/18 01:23:28;;;;;;;15.57;5.83;;;;;;;;;;5068929;28;20036;-78
2021/04/18 01:25:53;;;;;;;16.23;5.10;;;;;;;;;;5067628;28;20617;-78
2021/04/18 01:28:19;;;;;;;11.93;4.80;;;;;;;;;;5070490;28;20418;-78
2021/04/18 01:30:44;;;;;;;13.03;5.70;;;;;;;;;;5069735;28;20040;-78
2021/04/18 01:33:09;;;;;;;16.83;6.10;;;;;;;;;;5069495;28;20047;-78
2021/04/18 01:35:35;;;;;;;14.80;5.40;;;;;;;;;;5064852;28;20057;-78
2021/04/18 01:38:01;;;;;;;13.97;5.67;;;;;;;;;;5069089;28;20047;-78
2021/04/18 01:40:26;;;;;;;12.77;5.73;;;;;;;;;;5068514;28;20565;-78
2021/04/18 01:42:51;;;;;;;16.00;6.03;;;;;;;;;;5065433;28;20086;-78
2021/04/18 01:45:18;;;;;;;12.57;5.33;;;;;;;;;;5069925;28;20473;-78
2021/04/18 01:47:44;;;;;;;14.40;6.83;;;;;;;;;;5068675;28;20142;-78
2021/04/18 01:50:11;;;;;;;15.93;6.57;;;;;;;;;;5066693;28;20362;-78
2021/04/18 01:52:37;;;;;;;14.27;6.23;;;;;;;;;;5067971;28;20270;-78
2021/04/18 01:55:04;;;;;;;16.27;5.83;;;;;;;;;;5065471;28;20277;-78
2021/04/18 01:57:29;;;;;;;16.97;6.33;;;;;;;;;;5066877;28;20032;-78
2021/04/18 01:59:54;;;;;;;16.27;6.30;;;;;;;;;;5062082;28;20982;-78
2021/04/18 02:02:20;;;;;;;13.93;6.00;;;;;;;;;;5070939;28;20040;-78
2021/04/18 02:04:45;;;;;;;14.30;6.27;;;;;;;;;;5085191;28;20605;-78
2021/04/18 02:07:10;;;;;;;12.77;6.23;;;;;;;;;;5085335;28;20059;-78
2021/04/18 02:09:36;;;;;;;16.43;6.87;;;;;;;;;;5088005;28;20103;-78
2021/04/18 02:12:03;;;;;;;12.97;5.97;;;;;;;;;;5088285;28;20055;-78
2021/04/18 02:14:28;;;;;;;14.57;6.30;;;;;;;;;;5086319;28;20098;-78
2021/04/18 02:16:54;;;;;;;16.47;5.97;;;;;;;;;;5082055;28;20324;-78
2021/04/18 02:19:19;;;;;;;21.20;5.83;;;;;;;;;;5086269;28;20032;-78
2021/04/18 02:21:45;;;;;;;13.53;5.63;;;;;;;;;;5087651;28;20040;-78
2021/04/18 02:24:10;;;;;;;14.93;5.60;;;;;;;;;;5084544;28;20045;-78
2021/04/18 02:26:35;;;;;;;14.07;5.77;;;;;;;;;;5085435;28;20115;-78
2021/04/18 02:29:01;;;;;;;13.83;6.37;;;;;;;;;;5086462;28;20028;-78
2021/04/18 02:31:26;;;;;;;13.37;5.73;;;;;;;;;;5088256;28;20020;-78
2021/04/18 02:33:51;;;;;;;12.00;5.10;;;;;;;;;;5084726;28;20397;-78
2021/04/18 02:36:16;;;;;;;15.93;6.03;;;;;;;;;;5087164;28;20080;-78
2021/04/18 02:38:42;;;;;;;15.97;6.00;;;;;;;;;;5084249;28;20545;-78
2021/04/18 02:41:07;;;;;;;12.17;5.33;;;;;;;;;;5081951;28;20032;-78
2021/04/18 02:43:32;;;;;;;10.83;5.07;;;;;;;;;;5087677;28;20027;-78
2021/04/18 02:45:58;;;;;;;14.63;5.50;;;;;;;;;;5091038;28;20028;-78
2021/04/18 02:48:57;;;;;;;11.10;5.30;;;;;;;;;;5088946;28;20031;-78
2021/04/18 02:51:22;;;;;;;13.97;4.63;;;;;;;;;;5079188;28;20536;-78
2021/04/18 02:53:47;;;;;;;12.97;5.33;;;;;;;;;;5080253;28;20349;-78
2021/04/18 02:56:13;;;;;;;14.23;5.40;;;;;;;;;;5066493;28;20028;-78
2021/04/18 02:58:38;;;;;;;12.40;5.47;;;;;;;;;;5090326;28;20020;-78
2021/04/18 03:01:03;;;;;;;15.10;5.50;;;;;;;;;;5083064;28;20464;-78
2021/04/18 03:03:29;;;;;;;14.07;6.10;;;;;;;;;;5080158;28;20066;-78
2021/04/18 03:05:54;;;;;;;13.03;5.07;;;;;;;;;;5090176;28;20031;-78
2021/04/18 03:08:19;;;;;;;11.90;5.40;;;;;;;;;;5086883;28;20099;-78
2021/04/18 03:10:45;;;;;;;10.27;4.57;;;;;;;;;;5089609;28;20059;-78
2021/04/18 03:13:10;;;;;;;14.53;5.30;;;;;;;;;;5083640;28;20032;-78
2021/04/18 03:15:35;;;;;;;13.40;5.50;;;;;;;;;;5084194;28;20024;-78
2021/04/18 03:18:02;;;;;;;13.37;5.13;;;;;;;;;;5081569;28;20344;-78
2021/04/18 03:20:27;;;;;;;10.77;4.17;;;;;;;;;;5088981;28;20035;-78
2021/04/18 03:22:53;;;;;;;11.30;4.60;;;;;;;;;;5080551;28;20298;-78
2021/04/18 03:25:18;;;;;;;11.00;4.87;;;;;;;;;;5088884;28;20028;-78
2021/04/18 03:27:43;;;;;;;15.27;4.80;;;;;;;;;;5088324;28;20032;-78
2021/04/18 03:30:09;;;;;;;11.30;4.67;;;;;;;;;;5088495;28;20032;-78
2021/04/18 03:32:34;;;;;;;10.93;5.50;;;;;;;;;;5086477;28;20060;-78
2021/04/18 03:35:00;;;;;;;9.27;4.60;;;;;;;;;;5092327;28;20032;-78
2021/04/18 03:37:25;;;;;;;13.33;5.30;;;;;;;;;;5089483;28;20035;-78
2021/04/18 03:39:51;;;;;;;12.30;5.00;;;;;;;;;;5082315;28;20054;-78
2021/04/18 03:42:16;;;;;;;13.57;5.20;;;;;;;;;;5091102;28;20039;-78
2021/04/18 03:44:41;;;;;;;11.97;5.10;;;;;;;;;;5089912;28;20044;-78
2021/04/18 03:47:06;;;;;;;12.63;5.27;;;;;;;;;;5091163;28;20027;-78
2021/04/18 03:49:32;;;;;;;13.10;4.77;;;;;;;;;;5088730;28;20031;-78
2021/04/18 03:51:57;;;;;;;12.83;5.60;;;;;;;;;;5089550;28;20064;-78
2021/04/18 03:54:22;;;;;;;16.80;5.60;;;;;;;;;;5088505;28;20027;-78
2021/04/18 03:56:51;;;;;;;16.07;5.57;;;;;;;;;;5089943;28;20035;-78
2021/04/18 03:59:16;;;;;;;11.73;4.93;;;;;;;;;;5089991;28;20145;-78
2021/04/18 04:01:42;;;;;;;14.40;5.07;;;;;;;;;;5092148;28;20314;-78
2021/04/18 04:04:07;;;;;;;15.60;5.97;;;;;;;;;;5088118;28;20064;-78
2021/04/18 04:06:32;;;;;;;14.50;5.47;;;;;;;;;;5090846;28;20016;-78
2021/04/18 04:08:58;;;;;;;10.23;5.20;;;;;;;;;;5083678;28;20032;-78
2021/04/18 04:11:23;;;;;;;12.93;5.87;;;;;;;;;;5089597;28;20445;-78
2021/04/18 04:13:48;;;;;;;14.67;5.10;;;;;;;;;;5086504;28;20047;-78
2021/04/18 04:16:14;;;;;;;12.37;5.17;;;;;;;;;;5085840;28;20081;-78
2021/04/18 04:18:39;;;;;;;20.50;5.40;;;;;;;;;;5093301;28;20039;-78
2021/04/18 04:21:04;;;;;;;15.40;5.70;;;;;;;;;;5091319;28;20024;-78
2021/04/18 04:23:30;;;;;;;14.53;5.83;;;;;;;;;;5082934;28;20032;-78
2021/04/18 04:25:55;;;;;;;13.17;6.03;;;;;;;;;;5090857;28;20047;-78
2021/04/18 04:28:20;;;;;;;13.53;5.67;;;;;;;;;;5089817;28;20043;-78
2021/04/18 04:30:45;;;;;;;13.73;5.60;;;;;;;;;;5088226;28;20040;-78
2021/04/18 04:33:11;;;;;;;13.27;6.37;;;;;;;;;;5088689;28;20033;-78
2021/04/18 04:35:39;;;;;;;15.13;5.70;;;;;;;;;;5089223;28;20051;-78
2021/04/18 04:38:05;;;;;;;13.33;5.97;;;;;;;;;;5086968;28;20432;-78
2021/04/18 04:40:30;;;;;;;12.40;5.63;;;;;;;;;;5090555;28;20274;-78
2021/04/18 04:42:55;;;;;;;15.50;5.80;;;;;;;;;;5085938;28;20477;-78
2021/04/18 04:45:20;;;;;;;14.80;5.53;;;;;;;;;;5088330;28;20047;-77
2021/04/18 04:47:46;;;;;;;14.20;5.67;;;;;;;;;;5086350;28;20020;-77
2021/04/18 04:50:11;;;;;;;9.93;5.67;;;;;;;;;;5090595;28;20104;-77
2021/04/18 04:52:36;;;;;;;12.60;5.57;;;;;;;;;;5091653;28;20019;-77
2021/04/18 04:55:02;;;;;;;14.13;5.53;;;;;;;;;;5088800;28;20066;-77
2021/04/18 04:57:27;;;;;;;12.23;5.57;;;;;;;;;;5090479;28;20020;-77
2021/04/18 04:59:53;;;;;;;15.37;5.33;;;;;;;;;;5087358;28;20075;-77
2021/04/18 05:02:18;;;;;;;13.70;5.80;;;;;;;;;;5090297;28;20036;-77
2021/04/18 05:04:43;;;;;;;12.40;5.87;;;;;;;;;;5087978;28;20027;-77
2021/04/18 05:07:09;;;;;;;13.40;5.10;;;;;;;;;;5085083;28;20028;-77
2021/04/18 05:09:34;;;;;;;14.13;6.07;;;;;;;;;;5091479;28;20060;-77
2021/04/18 05:12:00;;;;;;;11.90;5.70;;;;;;;;;;5085367;28;20384;-77
2021/04/18 05:14:25;;;;;;;12.10;6.60;;;;;;;;;;5089593;28;20024;-77
2021/04/18 05:16:51;;;;;;;11.73;5.00;;;;;;;;;;5087026;28;20301;-78
2021/04/18 05:19:16;;;;;;;11.93;4.90;;;;;;;;;;5088246;28;20151;-78
2021/04/18 05:21:41;;;;;;;11.00;4.50;;;;;;;;;;5089202;28;20372;-78
2021/04/18 05:24:07;;;;;;;10.23;5.13;;;;;;;;;;5088857;28;20016;-78
2021/04/18 05:26:32;;;;;;;11.07;4.80;;;;;;;;;;5086971;28;20024;-78
2021/04/18 05:28:57;;;;;;;14.10;5.23;;;;;;;;;;5089789;28;20400;-78
2021/04/18 05:31:23;;;;;;;12.80;4.53;;;;;;;;;;5089225;28;20020;-78
2021/04/18 05:33:48;;;;;;;12.37;5.20;;;;;;;;;;5085139;28;20028;-78
2021/04/18 05:36:13;;;;;;;10.23;4.17;;;;;;;;;;5090034;28;20027;-78
2021/04/18 05:38:39;;;;;;;11.37;4.67;;;;;;;;;;5084306;28;20039;-78
2021/04/18 05:41:04;;;;;;;8.50;4.40;;;;;;;;;;5086738;28;20031;-78
2021/04/18 05:43:29;;;;;;;10.40;4.50;;;;;;;;;;5085500;28;20451;-78
2021/04/18 05:45:55;;;;;;;9.07;4.50;;;;;;;;;;5087345;28;20020;-78
2021/04/18 05:48:20;;;;;;;9.67;5.13;;;;;;;;;;5089612;28;20032;-78
2021/04/18 05:50:45;;;;;;;12.23;3.93;;;;;;;;;;5084056;28;20028;-78
2021/04/18 05:53:11;;;;;;;9.23;4.13;;;;;;;;;;5090124;28;20063;-78
2021/04/18 05:55:37;;;;;;;13.10;4.53;;;;;;;;;;5093310;28;20020;-78
2021/04/18 05:58:02;;;;;;;9.13;3.70;;;;;;;;;;5086156;28;20119;-78
2021/04/18 06:00:28;;;;;;;9.87;4.10;;;;;;;;;;5087589;28;20505;-78
2021/04/18 06:02:53;;;;;;;9.07;4.17;;;;;;;;;;5085467;28;20140;-78
2021/04/18 06:05:18;;;;;;;10.73;4.20;;;;;;;;;;5086643;28;20032;-78
2021/04/18 06:07:43;;;;;;;7.70;4.00;;;;;;;;;;5088341;28;20024;-78
2021/04/18 06:10:09;;;;;;;9.97;4.10;;;;;;;;;;5083194;28;20031;-78
2021/04/18 06:12:34;;;;;;;9.27;3.97;;;;;;;;;;5088569;28;20024;-78
2021/04/18 06:15:00;;;;;;;12.07;4.50;;;;;;;;;;5086598;28;20392;-78
2021/04/18 06:17:25;;;;;;;10.73;4.23;;;;;;;;;;5088446;28;20107;-78
2021/04/18 06:19:51;;;;;;;9.73;4.30;;;;;;;;;;5085909;28;20115;-78
2021/04/18 06:22:16;;;;;;;10.70;3.90;;;;;;;;;;5088788;28;20031;-78
2021/04/18 06:24:41;;;;;;;9.67;4.93;;;;;;;;;;5088658;28;20028;-78
2021/04/18 06:27:07;;;;;;;11.63;4.40;;;;;;;;;;5090355;28;20434;-79
2021/04/18 06:29:32;;;;;;;10.53;4.70;;;;;;;;;;5085185;28;20070;-78
2021/04/18 06:31:57;;;;;;;8.50;3.80;;;;;;;;;;5084257;28;20069;-78
2021/04/18 06:34:23;;;;;;;9.27;4.30;;;;;;;;;;5085365;28;20879;-78
2021/04/18 06:36:51;;;;;;;13.50;4.50;;;;;;;;;;5088035;28;20024;-78
2021/04/18 06:39:16;;;;;;;8.43;3.70;;;;;;;;;;5086479;28;20143;-78
2021/04/18 06:41:46;;;;;;;9.97;3.83;;;;;;;;;;5087664;28;20115;-78
2021/04/18 06:44:15;;;;;;;9.90;3.90;;;;;;;;;;5070389;28;20024;-78
2021/04/18 06:46:41;;;;;;;9.27;3.90;;;;;;;;;;5088612;28;20107;-78
2021/04/18 06:49:06;;;;;;;8.20;3.60;;;;;;;;;;5090575;28;20107;-78
2021/04/18 06:51:31;;;;;;;10.60;3.47;;;;;;;;;;5066837;28;20022;-78
2021/04/18 06:53:56;;;;;;;9.77;3.23;;;;;;;;;;5089738;28;20036;-78
2021/04/18 06:56:22;;;;;;;12.10;3.50;;;;;;;;;;5087693;28;20028;-78
2021/04/18 06:58:47;;;;;;;8.67;3.20;;;;;;;;;;5087473;28;20074;-79
2021/04/18 07:01:12;;;;;;;7.87;2.87;;;;;;;;;;5088125;28;20063;-79
2021/04/18 07:03:38;;;;;;;7.83;3.37;;;;;;;;;;5086018;28;20051;-78
2021/04/18 07:06:04;;;;;;;8.97;2.97;;;;;;;;;;5071291;28;20035;-78
2021/04/18 07:08:30;;;;;;;7.17;2.80;;;;;;;;;;5084399;28;20096;-78
2021/04/18 07:11:28;;;;;;;7.03;3.00;;;;;;;;;;5093672;28;20020;-78
2021/04/18 07:13:53;;;;;;;8.10;2.90;;;;;;;;;;5049196;28;20373;-78
2021/04/18 07:16:25;;;;;;;6.93;2.70;;;;;;;;;;5091356;28;20031;-78
2021/04/18 07:18:51;;;;;;;7.47;3.30;;;;;;;;;;5091913;28;20024;-78
2021/04/18 07:21:17;;;;;;;7.40;3.47;;;;;;;;;;5090931;28;20020;-78
2021/04/18 07:23:42;;;;;;;9.03;3.53;;;;;;;;;;5091087;28;20036;-78
2021/04/18 07:26:25;;;;;;;5.20;2.87;;;;;;;;;;5092073;28;20021;-78
2021/04/18 07:28:51;;;;;;;7.83;3.00;;;;;;;;;;5095108;28;20526;-78
2021/04/18 07:31:33;;;;;;;6.07;3.00;;;;;;;;;;5089693;28;20047;-78
2021/04/18 07:33:59;;;;;;;9.43;3.35;;;;;;;;;;5089796;28;20024;-78
2021/04/18 07:36:24;;;;;;;8.43;3.20;;;;;;;;;;5092442;28;20031;-78
2021/04/18 07:38:50;;;;;;;7.37;3.33;;;;;;;;;;5094755;28;20043;-79
2021/04/18 07:41:17;;;;;;;7.70;3.37;;;;;;;;;;5090361;28;20024;-79
2021/04/18 07:43:43;;;;;;;9.63;3.30;;;;;;;;;;5092846;28;20368;-79
2021/04/18 07:46:09;;;;;;;8.80;2.93;;;;;;;;;;5092972;28;20024;-79
2021/04/18 07:48:34;;;;;;;7.50;3.10;;;;;;;;;;5091245;28;20016;-79
2021/04/18 07:51:00;;;;;;;6.77;3.27;;;;;;;;;;5091714;28;20020;-79
2021/04/18 07:53:26;;;;;;;10.03;3.20;;;;;;;;;;5092765;28;20027;-79
2021/04/18 07:55:51;;;;;;;5.83;3.10;;;;;;;;;;5095316;28;20024;-79
2021/04/18 07:58:17;;;;;;;6.40;2.58;;;;;;;;;;5086847;28;20086;-79
2021/04/18 08:00:42;;;;;;;6.28;3.15;;;;;;;;;;5097512;28;20059;-79
2021/04/18 08:03:07;;;;;;;5.60;2.45;;;;;;;;;;5076248;28;20135;-79
2021/04/18 08:05:34;;;;;;;9.33;3.33;;;;;;;;;;5093489;28;20021;-79
2021/04/18 08:08:07;;;;;;;6.40;3.00;;;;;;;;;;5091607;28;20523;-79
2021/04/18 08:10:53;;;;;;;6.43;3.05;;;;;;;;;;5087791;28;20021;-79
2021/04/18 08:13:25;;;;;;;8.43;2.97;;;;;;;;;;5091474;28;20063;-79
2021/04/18 08:15:53;;;;;;;6.57;2.90;;;;;;;;;;5085070;28;20048;-79
2021/04/18 08:18:31;;;;;;;8.05;2.80;;;;;;;;;;5097532;28;20031;-79
2021/04/18 08:20:56;;;;;;;7.32;2.88;;;;;;;;;;5092143;28;20039;-79
2021/04/18 08:23:22;;;;;;;8.02;3.13;;;;;;;;;;5093299;28;20456;-79
2021/04/18 08:26:06;;;;;;;7.68;2.80;;;;;;;;;;5095814;28;20016;-79
2021/04/18 08:28:31;;;;;;;10.40;3.17;;;;;;;;;;5097139;28;20140;-79
2021/04/18 08:30:59;;;;;;;8.13;2.92;;;;;;;;;;5094324;28;20059;-79
2021/04/18 08:33:40;;;;;;;6.22;2.78;;;;;;;;;;5093095;28;20024;-79
2021/04/18 08:36:26;;;;;;;6.10;2.60;;;;;;;;;;5084965;28;20021;-79
2021/04/18 08:39:00;;;;;;;5.65;2.63;;;;;;;;;;5081482;28;20111;-79
2021/04/18 08:41:42;;;;;;;6.95;2.78;;;;;;;;;;5091125;28;20468;-79
2021/04/18 08:44:21;;;;;;;5.82;2.50;;;;;;;;;;5090653;28;20024;-79
2021/04/18 08:46:48;;;;;;;9.63;3.08;;;;;;;;;;5091487;28;20036;-79
2021/04/18 08:49:24;;;;;;;5.97;2.65;;;;;;;;;;5093256;28;20580;-79
2021/04/18 08:51:51;;;;;;;7.95;3.20;;;;;;;;;;5091956;28;20024;-79
2021/04/18 08:54:22;;;;;;;5.50;2.63;;;;;;;;;;5096884;28;20353;-80
2021/04/18 08:56:51;;;;;;;6.37;2.73;;;;;;;;;;5089944;28;20042;-80
2021/04/18 08:59:18;;;;;;;7.38;3.08;;;;;;;;;;5087153;28;20409;-80
2021/04/18 09:01:53;;;;;;;10.45;3.00;;;;;;;;;;5090339;28;20062;-79
2021/04/18 09:04:21;;;;;;;6.95;3.45;;;;;;;;;;5089494;28;20048;-79
2021/04/18 09:06:48;;;;;;;8.15;3.45;;;;;;;;;;5087499;28;20237;-78
2021/04/18 09:09:13;;;;;;;7.03;2.85;;;;;;;;;;5093361;28;20031;-79
2021/04/18 09:11:41;;;;;;;7.05;2.95;;;;;;;;;;5093429;28;20035;-79
2021/04/18 09:14:06;;;;;;;9.50;3.13;;;;;;;;;;5099021;28;20024;-80
2021/04/18 09:16:33;;;;;;;10.55;3.30;;;;;;;;;;5087740;28;20036;-80
2021/04/18 09:19:17;;;;;;;7.00;2.78;;;;;;;;;;5096003;28;20856;-80
2021/04/18 09:21:51;;;;;;;6.30;2.90;;;;;;;;;;5092197;28;20031;-80
2021/04/18 09:24:17;;;;;;;5.63;3.00;;;;;;;;;;5089008;28;20047;-80
2021/04/18 09:26:55;;;;;;;6.70;2.95;;;;;;;;;;5094329;28;20023;-80
2021/04/18 09:29:23;;;;;;;6.78;2.30;;;;;;;;;;5095730;28;20020;-80
2021/04/18 09:31:52;;;;;;;6.57;2.80;;;;;;;;;;5093720;28;20020;-79
2021/04/18 09:34:19;;;;;;;7.80;2.90;;;;;;;;;;5087693;28;20391;-80
2021/04/18 09:36:44;;;;;;;7.50;3.25;;;;;;;;;;5092468;28;20027;-80
2021/04/18 09:39:09;;;;;;;4.43;2.10;;;;;;;;;;5094999;28;20024;-80
2021/04/18 09:41:36;;;;;;;5.78;2.60;;;;;;;;;;5104718;28;20027;-80
2021/04/18 09:44:02;;;;;;;5.05;2.63;;;;;;;;;;5093290;28;20027;-80
2021/04/18 09:46:27;;;;;;;6.43;2.50;;;;;;;;;;5092898;28;20016;-80
2021/04/18 09:49:00;;;;;;;6.28;2.53;;;;;;;;;;5091071;28;20024;-80
2021/04/18 09:51:25;;;;;;;5.75;2.60;;;;;;;;;;5085743;28;20024;-80
2021/04/18 09:54:00;;;;;;;7.20;2.67;;;;;;;;;;5085513;28;20015;-80
2021/04/18 09:56:26;;;;;;;5.35;2.75;;;;;;;;;;5085783;28;20035;-80
2021/04/18 09:58:51;;;;;;;5.95;2.60;;;;;;;;;;5085631;28;20028;-80
2021/04/18 10:01:33;;;;;;;8.77;2.88;;;;;;;;;;5085319;28;20038;-80
2021/04/18 10:03:58;;;;;;;;;;;;;;;;;;5095066;28;20427;-81
2021/04/18 10:06:24;;;;;;;5.88;2.70;;;;;;;;;;5104505;28;20014;-81
2021/04/18 10:08:56;;;;;;;6.22;2.72;;;;;;;;;;5083260;28;20778;-80
2021/04/18 10:11:22;;;;;;;5.10;2.40;;;;;;;;;;5092398;28;20028;-80
2021/04/18 10:13:57;;;;;;;6.65;2.80;;;;;;;;;;5100294;28;20045;-80
2021/04/18 10:16:26;;;;;;;7.15;2.63;;;;;;;;;;5097532;28;20046;-80
2021/04/18 10:19:10;;;;;;;9.23;3.17;;;;;;;;;;5099240;28;20105;-80
2021/04/18 10:21:36;;;;;;;9.13;3.05;;;;;;;;;;5079425;28;20369;-80
2021/04/18 10:24:02;;;;;;;6.30;2.80;;;;;;;;;;5093055;28;20028;-80
2021/04/18 10:26:28;;;;;;;5.47;2.72;;;;;;;;;;5092530;28;20046;-80
2021/04/18 10:28:56;;;;;;;10.30;2.78;;;;;;;;;;5093096;28;20081;-80
2021/04/18 10:31:23;;;;;;;9.93;3.10;;;;;;;;;;5082997;28;20035;-80
2021/04/18 10:33:48;;;;;;;8.82;3.10;;;;;;;;;;5096517;28;20024;-80
2021/04/18 10:36:14;;;;;;;7.88;3.10;;;;;;;;;;5091999;28;20135;-80
2021/04/18 10:38:40;;;;;;;6.05;2.65;;;;;;;;;;5101022;28;20028;-80
2021/04/18 10:41:05;;;;;;;7.10;2.90;;;;;;;;;;5098059;28;20090;-80
2021/04/18 10:43:31;;;;;;;7.03;2.83;;;;;;;;;;5087637;28;20028;-80
2021/04/18 10:45:56;;;;;;;6.35;2.65;;;;;;;;;;5090938;28;20081;-80
2021/04/18 10:48:21;;;;;;;7.53;2.72;;;;;;;;;;5086033;28;20025;-80
2021/04/18 10:50:47;;;;;;;7.10;2.72;;;;;;;;;;5086068;28;20051;-80
2021/04/18 10:53:12;;;;;;;6.40;2.97;;;;;;;;;;5091062;28;20019;-80
2021/04/18 10:55:38;;;;;;;6.20;2.92;;;;;;;;;;5089420;28;20027;-80
2021/04/18 10:58:03;;;;;;;9.65;3.00;;;;;;;;;;5089184;28;20032;-79
2021/04/18 11:00:29;;;;;;;7.22;2.60;;;;;;;;;;5073287;28;20077;-79
2021/04/18 11:02:54;;;;;;;8.93;3.00;;;;;;;;;;5079760;28;20043;-79
2021/04/18 11:05:20;;;;;;;5.93;2.85;;;;;;;;;;5091254;28;20124;-79
2021/04/18 11:07:45;;;;;;;7.07;3.03;;;;;;;;;;5068402;28;20016;-79
2021/04/18 11:10:11;;;;;;;8.15;2.67;;;;;;;;;;5084577;28;20031;-79
2021/04/18 11:12:37;;;;;;;6.68;2.78;;;;;;;;;;5095876;28;20062;-79
2021/04/18 11:15:02;;;;;;;7.75;3.05;;;;;;;;;;5084606;28;20063;-79
2021/04/18 11:17:28;;;;;;;5.78;3.05;;;;;;;;;;5079255;28;20041;-79
2021/04/18 11:19:53;;;;;;;5.80;3.00;;;;;;;;;;5094224;28;20027;-79
2021/04/18 11:22:19;;;;;;;8.63;3.05;;;;;;;;;;5075388;28;20104;-79
2021/04/18 11:24:49;;;;;;;7.13;2.88;;;;;;;;;;5084373;28;20119;-79
2021/04/18 11:27:15;;;;;;;6.07;2.90;;;;;;;;;;5084057;28;20077;-79
2021/04/18 11:29:41;;;;;;;6.30;3.00;;;;;;;;;;5098231;28;20047;-79
2021/04/18 11:32:07;;;;;;;9.53;3.13;;;;;;;;;;5088325;28;20031;-79
2021/04/18 11:34:32;;;;;;;7.73;2.60;;;;;;;;;;5076827;28;20411;-78
2021/04/18 11:36:57;;;;;;;4.97;2.30;;;;;;;;;;5086879;28;20078;-78
2021/04/18 11:39:23;;;;;;;6.97;2.53;;;;;;;;;;5085304;28;20028;-79
2021/04/18 11:41:48;;;;;;;11.60;3.23;;;;;;;;;;5082861;28;20020;-78
2021/04/18 11:44:15;;;;;;;9.87;3.20;;;;;;;;;;5084183;28;20035;-79
2021/04/18 11:46:40;;;;;;;8.87;3.03;;;;;;;;;;5081962;28;20382;-79
2021/04/18 11:49:06;;;;;;;6.23;2.57;;;;;;;;;;5083406;28;20034;-78
2021/04/18 11:51:31;;;;;;;6.23;2.73;;;;;;;;;;5090656;28;20032;-77
2021/04/18 11:53:56;;;;;;;5.30;2.40;;;;;;;;;;5086041;28;20024;-77
2021/04/18 11:56:21;;;;;;;6.97;2.42;;;;;;;;;;5082662;28;20111;-78
2021/04/18 11:58:47;;;;;;;6.57;2.50;;;;;;;;;;5078941;28;20022;-79
2021/04/18 12:01:12;;;;;;;7.20;2.50;;;;;;;;;;5094676;28;20077;-79
2021/04/18 12:03:37;;;;;;;7.07;2.65;;;;;;;;;;5098157;28;20068;-79
2021/04/18 12:06:06;;;;;;;7.32;2.85;;;;;;;;;;5098296;28;20032;-80
2021/04/18 12:08:31;;;;;;;5.38;2.40;;;;;;;;;;5107380;28;20027;-80
2021/04/18 12:10:57;;;;;;;5.50;3.08;;;;;;;;;;5098531;28;20023;-80
2021/04/18 12:13:24;;;;;;;7.68;2.42;;;;;;;;;;5098026;28;20626;-80
2021/04/18 12:15:57;;;;;;;7.13;2.80;;;;;;;;;;5066850;28;20029;-80
2021/04/18 12:18:23;;;;;;;6.53;3.05;;;;;;;;;;5113480;28;20424;-80
2021/04/18 12:20:48;;;;;;;6.03;2.60;;;;;;;;;;5098150;28;20024;-80
2021/04/18 12:23:13;;;;;;;8.27;2.70;;;;;;;;;;5102622;28;20464;-79
2021/04/18 12:25:39;;;;;;;5.38;2.75;;;;;;;;;;5108461;28;20528;-79
2021/04/18 12:28:04;;;;;;;5.72;2.90;;;;;;;;;;5106578;28;20369;-80
2021/04/18 12:30:30;;;;;;;5.47;2.38;;;;;;;;;;5108738;28;20012;-79
2021/04/18 12:32:55;;;;;;;9.38;3.08;;;;;;;;;;5101048;28;20468;-79
2021/04/18 12:35:20;;;;;;;7.72;2.97;;;;;;;;;;5100659;28;20368;-79
2021/04/18 12:37:45;;;;;;;6.95;2.55;;;;;;;;;;5098485;28;20021;-79
2021/04/18 12:40:11;;;;;;;5.90;2.72;;;;;;;;;;5079959;28;20061;-79
2021/04/18 12:42:36;;;;;;;6.00;2.55;;;;;;;;;;5100055;28;20084;-80
2021/04/18 12:45:05;;;;;;;5.10;2.55;;;;;;;;;;5095470;28;20452;-80
2021/04/18 12:47:30;;;;;;;4.80;2.45;;;;;;;;;;5096230;28;20027;-80
2021/04/18 12:49:56;;;;;;;6.25;2.45;;;;;;;;;;5092019;28;20035;-80
2021/04/18 12:52:22;;;;;;;6.85;2.90;;;;;;;;;;5099753;28;20024;-80
2021/04/18 12:54:47;;;;;;;9.13;2.58;;;;;;;;;;5099103;28;20035;-79
2021/04/18 12:57:16;;;;;;;7.05;2.55;;;;;;;;;;5105901;28;20030;-79
2021/04/18 12:59:42;;;;;;;9.43;2.80;;;;;;;;;;5100168;28;20031;-79
2021/04/18 13:02:07;;;;;;;8.90;2.67;;;;;;;;;;5091294;28;20017;-79
2021/04/18 13:04:33;;;;;;;6.43;2.60;;;;;;;;;;5112928;28;20031;-79
2021/04/18 13:06:58;;;;;;;8.60;2.80;;;;;;;;;;5093988;28;20077;-79
2021/04/18 13:09:23;;;;;;;6.15;2.78;;;;;;;;;;5095578;28;20039;-79
2021/04/18 13:11:48;;;;;;;6.28;2.58;;;;;;;;;;5093774;28;20466;-79
2021/04/18 13:14:14;;;;;;;6.95;2.78;;;;;;;;;;5107686;28;20039;-80
2021/04/18 13:16:39;;;;;;;7.80;2.88;;;;;;;;;;5099371;28;20577;-79
2021/04/18 13:19:04;;;;;;;7.68;2.97;;;;;;;;;;5085730;28;20055;-79
2021/04/18 13:21:29;;;;;;;4.93;2.53;;;;;;;;;;5096275;28;20544;-79
2021/04/18 13:23:55;;;;;;;6.20;3.05;;;;;;;;;;5110764;28;20031;-78
2021/04/18 13:26:25;;;;;;;11.18;3.15;;;;;;;;;;5099042;28;20084;-77
2021/04/18 13:28:51;;;;;;;8.07;2.72;;;;;;;;;;5093749;28;20023;-77
2021/04/18 13:31:16;;;;;;;8.07;3.13;;;;;;;;;;5095628;28;20435;-77
2021/04/18 13:33:41;;;;;;;8.95;3.28;;;;;;;;;;5097096;28;20039;-77
2021/04/18 13:36:07;;;;;;;5.88;2.72;;;;;;;;;;5100615;28;20696;-77
2021/04/18 13:38:32;;;;;;;7.70;3.53;;;;;;;;;;5089297;28;20031;-77
2021/04/18 13:40:57;;;;;;;6.88;3.03;;;;;;;;;;5093420;28;20024;-77
2021/04/18 13:43:23;;;;;;;5.00;2.30;;;;;;;;;;5089745;28;20444;-77
2021/04/18 13:45:48;;;;;;;9.32;3.50;;;;;;;;;;5094188;28;20015;-77
2021/04/18 13:48:13;;;;;;;7.97;2.70;;;;;;;;;;5088642;28;20055;-77
2021/04/18 13:50:39;;;;;;;9.38;2.60;;;;;;;;;;5089919;28;20039;-77
2021/04/18 13:53:04;;;;;;;5.85;2.38;;;;;;;;;;5097255;28;20024;-77
2021/04/18 13:55:29;;;;;;;7.13;2.60;;;;;;;;;;5089181;28;20040;-77
2021/04/18 13:57:55;;;;;;;5.03;2.53;;;;;;;;;;5090407;28;20491;-81
2021/04/18 14:00:20;;;;;;;7.20;2.45;;;;;;;;;;5094269;28;20131;-81
2021/04/18 14:02:46;;;;;;;7.75;2.35;;;;;;;;;;5088392;28;20032;-81
2021/04/18 14:05:12;;;;;;;7.80;2.50;;;;;;;;;;5081205;28;20480;-81
2021/04/18 14:07:39;;;;;;;6.45;2.40;;;;;;;;;;5095204;28;20059;-81
2021/04/18 14:10:05;;;;;;;8.27;2.45;;;;;;;;;;5092201;28;20028;-81
2021/04/18 14:12:31;;;;;;;5.18;2.42;;;;;;;;;;5100049;28;20039;-81
2021/04/18 14:14:56;;;;;;;5.70;2.33;;;;;;;;;;5091902;28;20515;-82
2021/04/18 14:17:21;;;;;;;3.80;2.00;;;;;;;;;;5092363;28;20032;-81
2021/04/18 14:19:47;;;;;;;6.78;2.40;;;;;;;;;;5087663;28;20036;-81
2021/04/18 14:22:12;;;;;;;18.42;2.47;;;;;;;;;;5093550;28;20036;-81
2021/04/18 14:24:38;;;;;;;6.03;2.60;;;;;;;;;;5090642;28;20085;-79
2021/04/18 14:27:06;;;;;;;7.93;2.57;;;;;;;;;;5076960;28;20032;-78
2021/04/18 14:29:31;;;;;;;7.50;2.40;;;;;;;;;;5088808;28;20028;-78
2021/04/18 14:31:56;;;;;;;5.83;2.23;;;;;;;;;;5088602;28;20430;-78
2021/04/18 14:34:22;;;;;;;8.93;2.73;;;;;;;;;;5087826;28;20035;-78